Station History

Weather Underground - logo

Station Historical Data
Daily Summary for January 19, 2018 Units:  English    Metric   Both
« Previous Day
Next Day »
Daily Weekly Monthly Yearly Custom
  High: Low: Average:
Temperature: 53.1 °F 40.6 °F 49 °F
Dew Point: 49.9 °F 39.3 °F 46.7 °F
Humidity: 97 % 80 % 92 %
Wind Speed: 8.1 mph 0.0 mph 1.5 mph
Wind Gust: 8.1 mph - -
Wind:- - WNW
Pressure: 30.12 in 30.01 in -
Precipitation: 0.17 in    
Historical Graphs
 
 
Tabular Data for January 19, 2018
Time Temperature Dew Point Pressure Wind Wind Speed Wind Gust Humidity Rainfall Rate (Hourly)
00:04 47.6 °F 46.5 °F 30.04 in Calm     96 % 0.00 in
00:09 47.8 °F 46.7 °F 30.04 in Calm     96 % 0.00 in
00:14 47.9 °F 46.8 °F 30.04 in Calm     96 % 0.00 in
00:19 48.1 °F 47.0 °F 30.04 in Calm     96 % 0.00 in
00:24 48.3 °F 47.2 °F 30.04 in Calm     96 % 0.00 in
00:29 48.5 °F 47.4 °F 30.04 in Calm     96 % 0.00 in
00:34 48.5 °F 47.4 °F 30.04 in ESE 2.3 mph 2.3 mph 96 % 0.00 in
00:39 48.5 °F 47.4 °F 30.05 in Calm     96 % 0.00 in
00:44 48.7 °F 47.6 °F 30.05 in Calm     96 % 0.00 in
00:49 48.7 °F 47.6 °F 30.05 in Calm     96 % 0.00 in
00:55 48.7 °F 47.6 °F 30.05 in Calm     96 % 0.00 in
01:00 48.8 °F 47.7 °F 30.05 in Calm     96 % 0.00 in
01:05 48.8 °F 47.7 °F 30.05 in Calm     96 % 0.00 in
01:10 48.9 °F 47.8 °F 30.05 in Calm     96 % 0.00 in
01:15 49.0 °F 48.2 °F 30.06 in ESE 1.2 mph 1.2 mph 97 % 0.00 in
01:20 49.0 °F 47.9 °F 30.05 in Calm     96 % 0.00 in
01:25 49.0 °F 47.9 °F 30.05 in Calm     96 % 0.00 in
01:30 49.0 °F 48.2 °F 30.05 in Calm     97 % 0.00 in
01:35 49.1 °F 48.3 °F 30.05 in Calm     97 % 0.00 in
01:40 49.2 °F 48.4 °F 30.05 in Calm     97 % 0.00 in
01:45 49.3 °F 48.5 °F 30.06 in West 1.2 mph 1.2 mph 97 % 0.00 in
01:50 49.4 °F 48.6 °F 30.06 in Calm     97 % 0.00 in
01:55 49.4 °F 48.6 °F 30.06 in NW 1.2 mph 1.2 mph 97 % 0.00 in
02:00 49.3 °F 48.5 °F 30.06 in WNW 2.3 mph 2.3 mph 97 % 0.00 in
02:05 49.3 °F 48.5 °F 30.06 in NW 2.3 mph 2.3 mph 97 % 0.00 in
02:10 49.3 °F 48.5 °F 30.07 in NW 1.2 mph 1.2 mph 97 % 0.00 in
02:15 49.3 °F 48.5 °F 30.07 in Calm     97 % 0.00 in
02:20 49.3 °F 48.5 °F 30.07 in NW 1.2 mph 1.2 mph 97 % 0.00 in
02:25 49.4 °F 48.6 °F 30.07 in NW 1.2 mph 1.2 mph 97 % 0.00 in
02:30 49.5 °F 48.7 °F 30.07 in Calm     97 % 0.00 in
02:35 49.5 °F 48.7 °F 30.07 in Calm     97 % 0.00 in
02:40 49.7 °F 48.9 °F 30.07 in Calm     97 % 0.00 in
02:45 49.7 °F 48.9 °F 30.07 in Calm   0.2 mph 97 % 0.00 in
02:50 49.9 °F 49.1 °F 30.07 in Calm     97 % 0.00 in
02:55 49.9 °F 49.1 °F 30.07 in NW 1.2 mph 1.2 mph 97 % 0.00 in
03:00 49.8 °F 49.0 °F 30.07 in Calm     97 % 0.00 in
03:05 49.9 °F 49.1 °F 30.07 in Calm     97 % 0.00 in
03:10 50.0 °F 49.2 °F 30.06 in Calm     97 % 0.00 in
03:15 50.0 °F 49.2 °F 30.07 in Calm     97 % 0.00 in
03:20 50.1 °F 49.3 °F 30.06 in Calm     97 % 0.00 in
03:25 50.1 °F 49.3 °F 30.06 in Calm     97 % 0.00 in
03:30 50.1 °F 49.3 °F 30.06 in Calm     97 % 0.01 in
03:35 50.3 °F 49.5 °F 30.06 in Calm     97 % 0.01 in
03:40 50.3 °F 49.5 °F 30.06 in Calm   0.1 mph 97 % 0.01 in
03:45 50.3 °F 49.5 °F 30.06 in NW 1.2 mph 1.2 mph 97 % 0.01 in
03:50 50.4 °F 49.6 °F 30.06 in WNW 1.2 mph 1.2 mph 97 % 0.02 in
03:55 50.6 °F 49.8 °F 30.06 in WNW 3.0 mph 3.0 mph 97 % 0.02 in
04:00 50.7 °F 49.9 °F 30.06 in NW 3.5 mph 3.5 mph 97 % 0.02 in
04:05 50.7 °F 49.9 °F 30.06 in NW 3.5 mph 3.5 mph 97 % 0.02 in
04:10 50.6 °F 49.8 °F 30.06 in NW 2.3 mph 2.3 mph 97 % 0.02 in
04:15 50.5 °F 49.7 °F 30.06 in NW 3.5 mph 3.5 mph 97 % 0.03 in
04:20 50.4 °F 49.6 °F 30.06 in North 5.0 mph 5.0 mph 97 % 0.03 in
04:26 50.4 °F 49.6 °F 30.06 in NW 4.6 mph 4.6 mph 97 % 0.04 in
04:31 50.2 °F 49.1 °F 30.07 in NW 3.5 mph 3.5 mph 96 % 0.04 in
04:36 50.1 °F 49.0 °F 30.07 in NW 6.0 mph 6.0 mph 96 % 0.04 in
04:41 49.8 °F 48.7 °F 30.07 in NNW 3.5 mph 3.5 mph 96 % 0.05 in
04:46 49.7 °F 48.6 °F 30.06 in NNW 4.6 mph 4.6 mph 96 % 0.06 in
04:51 49.6 °F 48.5 °F 30.07 in WNW 4.0 mph 4.0 mph 96 % 0.06 in
04:56 49.5 °F 48.4 °F 30.07 in NW 4.6 mph 4.6 mph 96 % 0.06 in
05:01 49.5 °F 48.4 °F 30.07 in NW 6.9 mph 6.9 mph 96 % 0.06 in
05:06 49.3 °F 47.9 °F 30.07 in NW 5.0 mph 5.0 mph 95 % 0.06 in
05:11 49.1 °F 47.7 °F 30.06 in NW 6.9 mph 6.9 mph 95 % 0.07 in
05:16 49.0 °F 47.6 °F 30.06 in NW 8.1 mph 8.1 mph 95 % 0.06 in
05:21 49.0 °F 47.6 °F 30.07 in NW 8.1 mph 8.1 mph 95 % 0.06 in
05:26 48.9 °F 47.5 °F 30.07 in NW 4.6 mph 4.6 mph 95 % 0.05 in
05:31 48.9 °F 47.5 °F 30.07 in NNW 6.9 mph 6.9 mph 95 % 0.04 in
05:36 48.9 °F 47.5 °F 30.06 in NW 5.8 mph 5.8 mph 95 % 0.04 in
05:41 49.0 °F 47.6 °F 30.06 in NW 3.5 mph 3.5 mph 95 % 0.05 in
05:46 49.1 °F 47.7 °F 30.06 in WNW 3.5 mph 3.5 mph 95 % 0.04 in
05:51 49.1 °F 47.7 °F 30.06 in WNW 8.1 mph 8.1 mph 95 % 0.03 in
05:56 49.2 °F 47.8 °F 30.06 in NW 3.5 mph 3.5 mph 95 % 0.03 in
06:01 49.2 °F 47.8 °F 30.07 in NW 4.6 mph 4.6 mph 95 % 0.03 in
06:06 49.3 °F 47.9 °F 30.07 in NW 1.2 mph 1.2 mph 95 % 0.03 in
06:11 49.3 °F 47.9 °F 30.07 in NW 3.0 mph 3.0 mph 95 % 0.02 in
06:16 49.3 °F 47.9 °F 30.07 in NW 2.3 mph 2.3 mph 95 % 0.03 in
06:21 49.2 °F 47.8 °F 30.07 in NW 2.3 mph 2.3 mph 95 % 0.03 in
06:26 49.2 °F 47.8 °F 30.07 in WNW 2.3 mph 2.3 mph 95 % 0.03 in
06:31 49.2 °F 47.8 °F 30.07 in WNW 2.3 mph 2.3 mph 95 % 0.03 in
06:36 49.2 °F 47.8 °F 30.07 in NW 2.3 mph 2.3 mph 95 % 0.03 in
06:41 49.2 °F 47.8 °F 30.07 in West 1.2 mph 1.2 mph 95 % 0.01 in
06:46 49.2 °F 47.8 °F 30.07 in NNW 1.2 mph 1.2 mph 95 % 0.01 in
06:51 49.2 °F 47.8 °F 30.07 in NNE 1.2 mph 1.2 mph 95 % 0.01 in
06:56 49.2 °F 47.8 °F 30.07 in NW 3.5 mph 3.5 mph 95 % 0.01 in
07:01 49.3 °F 47.9 °F 30.07 in NW 1.2 mph 1.2 mph 95 % 0.01 in
07:06 49.3 °F 47.9 °F 30.07 in Calm   0.3 mph 95 % 0.01 in
07:11 49.3 °F 47.9 °F 30.07 in NW 1.2 mph 1.2 mph 95 % 0.01 in
07:16 49.3 °F 47.9 °F 30.08 in NW 1.2 mph 1.2 mph 95 % 0.00 in
07:21 49.3 °F 47.9 °F 30.08 in NW 2.3 mph 2.3 mph 95 % 0.00 in
07:26 49.3 °F 47.9 °F 30.08 in Calm     95 % 0.00 in
07:31 49.2 °F 47.8 °F 30.08 in NW 2.0 mph 2.0 mph 95 % 0.01 in
07:36 49.2 °F 47.8 °F 30.08 in NW 1.2 mph 1.2 mph 95 % 0.01 in
07:41 49.1 °F 47.7 °F 30.08 in Calm     95 % 0.01 in
07:46 49.1 °F 48.0 °F 30.09 in NW 1.2 mph 1.2 mph 96 % 0.01 in
07:51 49.1 °F 48.0 °F 30.09 in WNW 1.2 mph 1.2 mph 96 % 0.01 in
07:56 49.1 °F 48.0 °F 30.09 in NW 1.2 mph 1.2 mph 96 % 0.02 in
08:01 49.1 °F 48.0 °F 30.09 in NW 1.2 mph 1.2 mph 96 % 0.02 in
08:06 49.2 °F 48.1 °F 30.09 in NW 1.2 mph 1.2 mph 96 % 0.02 in
08:12 49.2 °F 48.1 °F 30.09 in WNW 2.0 mph 2.0 mph 96 % 0.02 in
08:16 49.1 °F 48.0 °F 30.09 in NW 2.3 mph 2.3 mph 96 % 0.02 in
08:22 49.2 °F 48.1 °F 30.09 in WNW 1.2 mph 1.2 mph 96 % 0.03 in
08:26 49.3 °F 48.2 °F 30.09 in Calm     96 % 0.03 in
08:31 49.4 °F 48.3 °F 30.09 in NW 1.2 mph 1.2 mph 96 % 0.02 in
08:36 49.4 °F 48.3 °F 30.09 in NNW 1.2 mph 1.2 mph 96 % 0.02 in
08:41 49.5 °F 48.4 °F 30.09 in Calm     96 % 0.02 in
08:47 49.6 °F 48.5 °F 30.09 in Calm     96 % 0.02 in
08:52 49.7 °F 48.6 °F 30.09 in NW 1.2 mph 1.2 mph 96 % 0.01 in
08:57 49.6 °F 48.5 °F 30.10 in North 2.3 mph 2.3 mph 96 % 0.01 in
09:02 49.8 °F 48.7 °F 30.10 in Calm     96 % 0.01 in
09:07 49.8 °F 48.7 °F 30.09 in West 1.2 mph 1.2 mph 96 % 0.01 in
09:12 49.9 °F 48.8 °F 30.09 in West 1.0 mph   96 % 0.01 in
09:17 49.9 °F 48.8 °F 30.10 in Calm     96 % 0.01 in
09:22 50.0 °F 48.9 °F 30.10 in WNW 1.2 mph 1.2 mph 96 % 0.00 in
09:27 50.0 °F 48.9 °F 30.10 in WNW 2.3 mph 2.3 mph 96 % 0.00 in
09:32 50.0 °F 48.9 °F 30.11 in Calm     96 % 0.00 in
09:37 50.2 °F 49.1 °F 30.11 in NW 1.2 mph 1.2 mph 96 % 0.00 in
09:42 50.0 °F 48.6 °F 30.11 in NW 2.3 mph 2.3 mph 95 % 0.00 in
09:47 50.1 °F 48.7 °F 30.11 in NW 2.3 mph 2.3 mph 95 % 0.00 in
09:52 50.1 °F 48.7 °F 30.11 in NW 3.0 mph 3.0 mph 95 % 0.00 in
09:57 50.0 °F 48.6 °F 30.11 in NNW 2.3 mph 2.3 mph 95 % 0.01 in
10:02 49.9 °F 48.5 °F 30.11 in WNW 2.3 mph 2.3 mph 95 % 0.01 in
10:07 49.9 °F 48.5 °F 30.11 in NW 2.3 mph 2.3 mph 95 % 0.01 in
10:12 49.8 °F 48.4 °F 30.11 in NW 1.2 mph 1.2 mph 95 % 0.01 in
10:17 49.9 °F 48.5 °F 30.11 in NW 1.2 mph 1.2 mph 95 % 0.02 in
10:22 49.9 °F 48.5 °F 30.12 in NW 1.2 mph 1.2 mph 95 % 0.02 in
10:27 49.9 °F 48.5 °F 30.11 in WNW 2.3 mph 2.3 mph 95 % 0.02 in
10:32 50.0 °F 48.6 °F 30.11 in NW 2.3 mph 2.3 mph 95 % 0.02 in
10:37 50.1 °F 48.7 °F 30.11 in NW 1.2 mph   95 % 0.02 in
10:42 50.1 °F 48.7 °F 30.11 in WNW 1.2 mph 1.2 mph 95 % 0.02 in
10:47 50.0 °F 48.6 °F 30.11 in NW 2.3 mph 2.3 mph 95 % 0.02 in
10:52 50.0 °F 48.3 °F 30.11 in NW 2.3 mph 2.3 mph 94 % 0.02 in
10:57 50.0 °F 48.3 °F 30.11 in NW 2.3 mph 2.3 mph 94 % 0.01 in
11:02 50.0 °F 48.3 °F 30.11 in NW 3.5 mph 3.5 mph 94 % 0.01 in
11:07 50.2 °F 48.5 °F 30.11 in NW 1.2 mph 1.2 mph 94 % 0.01 in
11:12 50.3 °F 48.6 °F 30.10 in NW 1.2 mph   94 % 0.01 in
11:17 50.4 °F 48.5 °F 30.10 in NW 2.3 mph 2.3 mph 93 % 0.00 in
11:22 50.4 °F 48.5 °F 30.09 in WNW 1.2 mph   93 % 0.00 in
11:27 50.6 °F 48.4 °F 30.09 in WNW 1.2 mph 1.2 mph 92 % 0.00 in
11:32 50.8 °F 48.6 °F 30.09 in NW 2.0 mph 2.0 mph 92 % 0.00 in
11:38 50.9 °F 48.7 °F 30.09 in NW 2.3 mph 2.3 mph 92 % 0.00 in
11:43 50.9 °F 48.4 °F 30.09 in NW 2.3 mph 2.3 mph 91 % 0.00 in
11:48 51.0 °F 48.5 °F 30.08 in WNW 3.5 mph 3.5 mph 91 % 0.00 in
11:53 51.0 °F 48.2 °F 30.08 in NW 2.3 mph 2.3 mph 90 % 0.00 in
11:58 51.1 °F 48.3 °F 30.08 in NW 3.5 mph 3.5 mph 90 % 0.00 in
12:03 51.1 °F 48.0 °F 30.08 in NW 1.2 mph 1.2 mph 89 % 0.00 in
12:08 51.3 °F 48.2 °F 30.08 in WNW 3.5 mph 3.5 mph 89 % 0.00 in
12:13 51.3 °F 48.2 °F 30.08 in NW 3.5 mph 3.5 mph 89 % 0.00 in
12:18 51.2 °F 47.8 °F 30.07 in WNW 3.5 mph 3.5 mph 88 % 0.00 in
12:23 51.3 °F 47.9 °F 30.07 in NW 4.0 mph 4.0 mph 88 % 0.00 in
12:28 51.3 °F 47.9 °F 30.07 in NW 5.8 mph 5.8 mph 88 % 0.00 in
12:33 51.3 °F 47.9 °F 30.07 in NW 5.8 mph 5.8 mph 88 % 0.00 in
12:38 51.4 °F 48.0 °F 30.06 in NW 3.5 mph 3.5 mph 88 % 0.00 in
12:43 51.6 °F 48.2 °F 30.06 in NW 3.5 mph 3.5 mph 88 % 0.00 in
12:48 51.6 °F 47.9 °F 30.06 in WNW 3.5 mph 3.5 mph 87 % 0.00 in
12:53 51.7 °F 48.3 °F 30.06 in WNW 3.5 mph 3.5 mph 88 % 0.00 in
12:58 51.7 °F 48.0 °F 30.05 in WNW 5.0 mph 5.0 mph 87 % 0.00 in
13:03 51.7 °F 48.0 °F 30.05 in WNW 3.5 mph 3.5 mph 87 % 0.00 in
13:08 51.8 °F 48.4 °F 30.05 in NW 3.5 mph 3.5 mph 88 % 0.00 in
13:13 51.7 °F 47.6 °F 30.05 in NW 3.5 mph 3.5 mph 86 % 0.00 in
13:18 51.6 °F 47.5 °F 30.04 in WNW 5.8 mph 5.8 mph 86 % 0.00 in
13:23 51.7 °F 48.0 °F 30.04 in WNW 3.5 mph 3.5 mph 87 % 0.00 in
13:28 51.7 °F 47.6 °F 30.04 in NW 4.0 mph 4.0 mph 86 % 0.00 in
13:33 51.7 °F 47.6 °F 30.04 in NW 6.9 mph 6.9 mph 86 % 0.00 in
13:38 51.9 °F 48.2 °F 30.04 in NW 3.5 mph 3.5 mph 87 % 0.00 in
13:43 52.0 °F 47.9 °F 30.04 in WNW 2.3 mph 2.3 mph 86 % 0.00 in
13:48 52.0 °F 47.9 °F 30.04 in WNW 4.6 mph 4.6 mph 86 % 0.00 in
13:53 52.1 °F 47.7 °F 30.04 in NNW 3.5 mph 3.5 mph 85 % 0.00 in
13:58 52.2 °F 47.8 °F 30.04 in NW 5.8 mph 5.8 mph 85 % 0.00 in
14:03 52.2 °F 47.8 °F 30.04 in NW 3.5 mph 3.5 mph 85 % 0.00 in
14:08 52.3 °F 47.9 °F 30.04 in NW 2.3 mph 2.3 mph 85 % 0.00 in
14:13 52.4 °F 48.0 °F 30.03 in NW 3.5 mph 3.5 mph 85 % 0.00 in
14:18 52.5 °F 48.1 °F 30.03 in West 3.5 mph 3.5 mph 85 % 0.00 in
14:23 52.7 °F 48.0 °F 30.03 in NNW 1.2 mph 1.3 mph 84 % 0.00 in
14:28 52.8 °F 47.8 °F 30.03 in NNW 2.3 mph 2.3 mph 83 % 0.00 in
14:33 53.0 °F 48.0 °F 30.03 in NW 2.3 mph 2.3 mph 83 % 0.00 in
14:38 53.1 °F 48.1 °F 30.03 in NW 3.5 mph 3.5 mph 83 % 0.00 in
14:43 53.1 °F 47.7 °F 30.03 in NNW 2.3 mph 2.3 mph 82 % 0.00 in
14:48 53.0 °F 47.3 °F 30.03 in NNW 4.6 mph 4.6 mph 81 % 0.00 in
14:53 53.0 °F 47.3 °F 30.03 in NNW 2.3 mph 2.3 mph 81 % 0.00 in
14:58 53.0 °F 47.0 °F 30.03 in WNW 3.5 mph 3.5 mph 80 % 0.00 in
15:03 53.0 °F 47.3 °F 30.03 in NW 2.0 mph 2.0 mph 81 % 0.00 in
15:08 53.0 °F 47.0 °F 30.03 in WNW 3.5 mph 3.5 mph 80 % 0.00 in
15:13 53.0 °F 47.7 °F 30.03 in WNW 1.2 mph 1.2 mph 82 % 0.00 in
15:18 53.0 °F 47.7 °F 30.03 in West 1.2 mph 1.2 mph 82 % 0.00 in
15:23 53.0 °F 47.3 °F 30.03 in NW 3.5 mph 3.5 mph 81 % 0.00 in
15:28 52.9 °F 47.2 °F 30.03 in NW 1.2 mph 1.2 mph 81 % 0.00 in
15:33 52.8 °F 47.1 °F 30.02 in WNW 2.3 mph 2.3 mph 81 % 0.00 in
15:38 52.8 °F 47.1 °F 30.02 in WNW 2.3 mph   81 % 0.00 in
15:43 52.7 °F 47.0 °F 30.02 in NW 2.0 mph 2.0 mph 81 % 0.00 in
15:48 52.7 °F 47.0 °F 30.03 in NW 4.0 mph 4.0 mph 81 % 0.00 in
15:53 52.6 °F 46.9 °F 30.02 in NW 2.0 mph 2.0 mph 81 % 0.00 in
15:58 52.6 °F 46.9 °F 30.02 in WNW 1.2 mph 1.2 mph 81 % 0.00 in
16:03 52.5 °F 46.8 °F 30.02 in WNW 2.3 mph 2.3 mph 81 % 0.00 in
16:08 52.4 °F 46.4 °F 30.02 in West 2.3 mph 2.3 mph 80 % 0.00 in
16:13 52.4 °F 46.4 °F 30.02 in NW 1.2 mph 1.2 mph 80 % 0.00 in
16:18 52.3 °F 46.3 °F 30.02 in NW 1.2 mph   80 % 0.00 in
16:23 52.2 °F 46.2 °F 30.02 in NW 1.2 mph 1.2 mph 80 % 0.00 in
16:28 52.1 °F 46.4 °F 30.01 in Calm     81 % 0.00 in
16:33 52.0 °F 46.3 °F 30.02 in Calm     81 % 0.00 in
16:38 51.9 °F 46.3 °F 30.01 in Calm     81 % 0.00 in
16:43 51.8 °F 46.2 °F 30.01 in Calm     81 % 0.00 in
16:48 51.7 °F 46.4 °F 30.01 in Calm     82 % 0.00 in
16:53 51.6 °F 46.0 °F 30.01 in Calm     81 % 0.00 in
16:58 51.5 °F 46.2 °F 30.01 in Calm     82 % 0.00 in
17:03 51.5 °F 46.2 °F 30.01 in Calm     82 % 0.00 in
17:08 51.4 °F 46.1 °F 30.01 in Calm     82 % 0.00 in
17:13 51.4 °F 46.4 °F 30.01 in Calm     83 % 0.00 in
17:18 51.3 °F 46.6 °F 30.01 in Calm     84 % 0.00 in
17:23 51.2 °F 46.5 °F 30.01 in Calm     84 % 0.00 in
17:28 51.0 °F 46.6 °F 30.02 in Calm     85 % 0.00 in
17:33 50.9 °F 46.6 °F 30.01 in Calm     85 % 0.00 in
17:38 50.9 °F 46.9 °F 30.01 in Calm     86 % 0.00 in
17:43 50.8 °F 47.1 °F 30.01 in Calm     87 % 0.00 in
17:48 50.7 °F 47.0 °F 30.02 in Calm     87 % 0.00 in
17:53 50.6 °F 46.9 °F 30.02 in Calm     87 % 0.00 in
17:58 50.5 °F 47.1 °F 30.02 in Calm     88 % 0.00 in
18:03 50.3 °F 46.9 °F 30.02 in Calm     88 % 0.00 in
18:08 50.1 °F 47.0 °F 30.02 in Calm     89 % 0.00 in
18:13 49.9 °F 46.8 °F 30.02 in Calm     89 % 0.00 in
18:18 49.8 °F 46.7 °F 30.02 in Calm     89 % 0.00 in
18:23 49.6 °F 46.8 °F 30.02 in Calm     90 % 0.00 in
18:28 49.4 °F 46.6 °F 30.02 in Calm     90 % 0.00 in
18:33 49.1 °F 46.3 °F 30.02 in Calm     90 % 0.00 in
18:38 48.9 °F 46.1 °F 30.02 in Calm     90 % 0.00 in
18:43 48.8 °F 46.0 °F 30.02 in Calm     90 % 0.00 in
18:48 48.5 °F 45.7 °F 30.02 in Calm     90 % 0.00 in
18:53 48.2 °F 45.7 °F 30.02 in Calm     91 % 0.00 in
18:58 47.9 °F 45.4 °F 30.02 in Calm     91 % 0.00 in
19:03 47.6 °F 45.1 °F 30.02 in Calm     91 % 0.00 in
19:08 47.3 °F 44.8 °F 30.02 in Calm     91 % 0.00 in
19:13 47.1 °F 44.9 °F 30.02 in Calm     92 % 0.00 in
19:19 46.8 °F 44.6 °F 30.02 in Calm     92 % 0.00 in
19:24 46.6 °F 44.4 °F 30.02 in Calm     92 % 0.00 in
19:29 46.5 °F 44.3 °F 30.02 in Calm     92 % 0.00 in
19:34 46.4 °F 44.2 °F 30.02 in Calm     92 % 0.00 in
19:39 46.1 °F 43.9 °F 30.02 in Calm     92 % 0.00 in
19:44 45.9 °F 43.7 °F 30.02 in Calm     92 % 0.00 in
19:49 45.7 °F 43.5 °F 30.02 in Calm     92 % 0.00 in
19:54 45.3 °F 43.4 °F 30.02 in Calm     93 % 0.00 in
19:59 45.1 °F 43.2 °F 30.03 in Calm     93 % 0.00 in
20:04 44.9 °F 43.0 °F 30.03 in Calm     93 % 0.00 in
20:09 44.9 °F 43.0 °F 30.03 in Calm     93 % 0.00 in
20:14 44.8 °F 42.9 °F 30.03 in Calm     93 % 0.00 in
20:19 44.6 °F 42.7 °F 30.03 in Calm     93 % 0.00 in
20:24 44.5 °F 42.6 °F 30.04 in Calm     93 % 0.00 in
20:29 44.4 °F 42.8 °F 30.04 in Calm   0.1 mph 94 % 0.00 in
20:34 44.3 °F 42.7 °F 30.04 in Calm     94 % 0.00 in
20:39 44.3 °F 42.7 °F 30.04 in Calm     94 % 0.00 in
20:44 44.2 °F 42.6 °F 30.04 in Calm     94 % 0.00 in
20:49 44.1 °F 42.5 °F 30.04 in Calm     94 % 0.00 in
20:54 44.1 °F 42.5 °F 30.04 in SE 1.2 mph   94 % 0.00 in
20:59 44.4 °F 42.8 °F 30.04 in SE 1.2 mph   94 % 0.00 in
21:04 44.5 °F 42.9 °F 30.05 in ESE 1.2 mph   94 % 0.00 in
21:09 44.5 °F 42.9 °F 30.05 in Calm     94 % 0.00 in
21:14 44.5 °F 42.9 °F 30.05 in Calm     94 % 0.00 in
21:19 44.4 °F 42.8 °F 30.05 in SSE 1.2 mph   94 % 0.00 in
21:24 44.3 °F 42.7 °F 30.05 in Calm     94 % 0.00 in
21:25 44.3 °F 42.7 °F 30.05 in Calm     94 % 0.00 in
21:30 44.3 °F 42.7 °F 30.05 in Calm     94 % 0.00 in
21:35 44.2 °F 42.6 °F 30.05 in Calm     94 % 0.00 in
21:40 44.2 °F 42.6 °F 30.05 in Calm     94 % 0.00 in
21:45 44.0 °F 42.4 °F 30.05 in Calm     94 % 0.00 in
21:50 43.9 °F 42.3 °F 30.05 in Calm     94 % 0.00 in
21:55 43.7 °F 42.1 °F 30.06 in Calm     94 % 0.00 in
22:00 43.4 °F 41.8 °F 30.06 in Calm     94 % 0.00 in
22:05 43.3 °F 41.7 °F 30.06 in Calm     94 % 0.00 in
22:10 43.1 °F 41.5 °F 30.06 in Calm     94 % 0.00 in
22:15 42.9 °F 41.6 °F 30.06 in Calm     95 % 0.00 in
22:20 42.8 °F 41.5 °F 30.06 in Calm     95 % 0.00 in
22:25 42.5 °F 41.2 °F 30.06 in Calm     95 % 0.00 in
22:30 42.4 °F 41.1 °F 30.06 in West 1.2 mph   95 % 0.00 in
22:35 42.4 °F 41.1 °F 30.06 in Calm     95 % 0.00 in
22:40 42.2 °F 40.9 °F 30.06 in Calm     95 % 0.00 in
22:45 41.9 °F 40.6 °F 30.06 in Calm     95 % 0.00 in
22:50 41.9 °F 40.6 °F 30.06 in Calm     95 % 0.00 in
22:55 41.8 °F 40.5 °F 30.06 in Calm     95 % 0.00 in
23:00 41.6 °F 40.3 °F 30.07 in Calm     95 % 0.00 in
23:05 41.6 °F 40.3 °F 30.06 in Calm     95 % 0.00 in
23:10 41.6 °F 40.3 °F 30.06 in Calm     95 % 0.00 in
23:15 41.5 °F 40.2 °F 30.06 in Calm     95 % 0.00 in
23:20 41.5 °F 40.2 °F 30.06 in Calm     95 % 0.00 in
23:25 41.3 °F 40.0 °F 30.06 in Calm     95 % 0.00 in
23:30 41.2 °F 39.9 °F 30.06 in Calm     95 % 0.00 in
23:35 41.0 °F 39.7 °F 30.06 in Calm     95 % 0.00 in
23:40 40.8 °F 39.5 °F 30.06 in Calm     95 % 0.00 in
23:45 40.8 °F 39.5 °F 30.06 in Calm     95 % 0.00 in
23:50 40.6 °F 39.3 °F 30.06 in Calm     95 % 0.00 in
Park Place, Exeter, Tulare County, California, USA
Compliments of Weather Underground - 2.75 mb